Time;durP1;ratioP1;P1;durP2;ratioP2;P2;SDS_P1;SDS_P2;PMS_P1;PMS_P2;Temp;Humidity;BMP_temperature;BMP_pressure;BME280_temperature;BME280_humidity;BME280_pressure;Samples;Min_cycle;Max_cycle;Signal;HPM_P1;HPM_P2
2022/07/13 00:01:09;;;;;;;0.53;0.53;;;32.80;51.50;;;;;;5105983;28;20448;-66
2022/07/13 00:03:39;;;;;;;0.67;0.67;;;32.70;51.30;;;;;;5124272;28;20509;-66
2022/07/13 00:06:12;;;;;;;0.70;0.70;;;32.70;52.20;;;;;;5123369;28;20460;-66
2022/07/13 00:08:43;;;;;;;0.60;0.57;;;32.60;51.40;;;;;;5107041;28;20460;-66
2022/07/13 00:11:17;;;;;;;0.77;0.60;;;32.60;52.70;;;;;;5104467;28;20455;-66
2022/07/13 00:13:48;;;;;;;1.70;0.70;;;32.50;51.70;;;;;;5105177;28;20448;-66
2022/07/13 00:16:18;;;;;;;0.60;0.60;;;32.30;52.70;;;;;;5108227;28;20460;-65
2022/07/13 00:18:49;;;;;;;0.63;0.63;;;32.20;53.50;;;;;;5123920;28;20463;-66
2022/07/13 00:21:24;;;;;;;0.80;0.80;;;32.30;54.50;;;;;;5121926;28;20475;-66
2022/07/13 00:24:00;;;;;;;0.60;0.60;;;32.40;54.10;;;;;;5123580;28;20487;-66
2022/07/13 00:26:31;;;;;;;0.70;0.70;;;32.40;53.70;;;;;;5121026;28;20470;-65
2022/07/13 00:29:11;;;;;;;0.90;0.90;;;32.30;53.90;;;;;;5124546;28;20527;-66
2022/07/13 00:31:42;;;;;;;0.77;0.77;;;32.20;53.60;;;;;;5124426;28;20483;-66
2022/07/13 00:34:13;;;;;;;0.57;0.57;;;32.30;53.90;;;;;;5124410;28;20474;-66
2022/07/13 00:36:46;;;;;;;0.93;0.93;;;32.20;54.00;;;;;;5113410;28;20450;-66
2022/07/13 00:39:17;;;;;;;0.80;0.80;;;32.10;54.00;;;;;;5103923;28;20757;-65
2022/07/13 00:41:48;;;;;;;0.70;0.70;;;32.10;54.60;;;;;;5103721;28;20456;-66
2022/07/13 00:44:19;;;;;;;0.80;0.80;;;32.00;55.10;;;;;;5103408;28;20505;-66
2022/07/13 00:46:54;;;;;;;0.90;0.67;;;32.00;55.60;;;;;;5112650;28;20438;-65
2022/07/13 00:49:26;;;;;;;1.03;0.97;;;31.90;55.80;;;;;;5087458;28;20473;-66
2022/07/13 00:51:58;;;;;;;0.77;0.77;;;31.80;56.90;;;;;;5102528;28;20459;-66
2022/07/13 00:54:31;;;;;;;0.63;0.63;;;31.50;57.20;;;;;;5103739;28;20457;-66
2022/07/13 00:57:03;;;;;;;0.80;0.70;;;31.60;58.00;;;;;;5110548;28;20471;-66
2022/07/13 00:59:36;;;;;;;1.33;1.23;;;31.60;58.40;;;;;;5099506;28;20453;-67
2022/07/13 01:02:07;;;;;;;0.90;0.80;;;31.60;58.70;;;;;;5103575;28;20450;-65
2022/07/13 01:04:38;;;;;;;1.20;1.10;;;31.50;59.10;;;;;;5123296;28;20484;-65
2022/07/13 01:07:11;;;;;;;1.30;1.10;;;31.50;58.90;;;;;;5120970;28;20452;-66
2022/07/13 01:09:42;;;;;;;1.30;1.20;;;31.40;59.80;;;;;;5123241;28;20471;-66
2022/07/13 01:12:13;;;;;;;0.80;0.80;;;31.10;60.30;;;;;;5123454;28;20471;-66
2022/07/13 01:14:44;;;;;;;1.27;1.10;;;30.90;61.30;;;;;;5123871;28;20516;-65
2022/07/13 01:17:15;;;;;;;0.90;0.90;;;30.80;62.10;;;;;;5121477;28;20445;-65
2022/07/13 01:19:47;;;;;;;1.27;1.17;;;30.80;62.50;;;;;;5121772;28;20453;-65
2022/07/13 01:22:23;;;;;;;1.00;0.83;;;30.60;63.40;;;;;;5091543;28;20545;-65
2022/07/13 01:24:57;;;;;;;1.60;1.20;;;30.50;64.40;;;;;;5103946;28;20571;-65
2022/07/13 01:27:28;;;;;;;1.00;1.00;;;30.40;64.30;;;;;;5113382;28;20479;-66
2022/07/13 01:29:58;;;;;;;1.33;1.13;;;30.20;65.40;;;;;;5122461;28;20461;-67
2022/07/13 01:32:29;;;;;;;1.50;1.40;;;30.00;64.80;;;;;;5096793;28;20525;-65
2022/07/13 01:35:00;;;;;;;1.30;1.10;;;29.90;65.30;;;;;;5102754;28;20468;-65
2022/07/13 01:37:31;;;;;;;1.30;1.20;;;29.70;66.40;;;;;;5109673;28;20473;-65
2022/07/13 01:40:03;;;;;;;1.73;1.10;;;29.50;66.90;;;;;;5122807;28;20935;-65
2022/07/13 01:42:34;;;;;;;1.83;1.50;;;29.40;66.90;;;;;;5123109;28;20473;-66
2022/07/13 01:45:06;;;;;;;2.07;1.80;;;29.40;68.40;;;;;;5122761;28;20476;-66
2022/07/13 01:47:40;;;;;;;1.50;1.40;;;29.30;68.70;;;;;;5115285;28;20437;-66
2022/07/13 01:50:12;;;;;;;1.97;1.70;;;29.30;68.80;;;;;;5101291;28;20969;-66
2022/07/13 01:52:43;;;;;;;1.57;1.47;;;29.10;69.00;;;;;;5103183;28;20829;-66
2022/07/13 01:55:16;;;;;;;1.77;1.63;;;28.80;69.80;;;;;;5102325;28;20463;-66
2022/07/13 01:57:48;;;;;;;1.27;1.20;;;28.60;71.00;;;;;;5111670;28;20526;-66
2022/07/13 02:00:20;;;;;;;1.60;1.50;;;28.50;71.70;;;;;;5105464;28;20895;-66
2022/07/13 02:10:36;;;;;;;2.80;1.67;;;28.00;72.70;;;;;;4941606;29;20484;-66
2022/07/13 02:13:07;;;;;;;1.47;1.37;;;27.60;74.20;;;;;;4942368;29;20485;-66
2022/07/13 02:15:38;;;;;;;1.40;1.30;;;27.50;75.00;;;;;;4946738;29;20458;-66
2022/07/13 02:18:09;;;;;;;1.83;1.73;;;27.30;75.60;;;;;;4951663;29;20552;-66
2022/07/13 02:20:40;;;;;;;2.17;1.80;;;27.20;76.50;;;;;;4941552;29;20512;-66
2022/07/13 02:23:11;;;;;;;2.47;1.50;;;27.20;76.20;;;;;;4942224;29;20537;-66
2022/07/13 02:25:44;;;;;;;1.67;1.53;;;27.00;77.10;;;;;;4942821;29;20461;-66
2022/07/13 02:28:15;;;;;;;2.10;1.90;;;27.00;77.20;;;;;;4952354;29;20473;-67
2022/07/13 02:30:46;;;;;;;2.90;1.70;;;26.90;76.80;;;;;;4960268;29;20473;-67
2022/07/13 02:33:18;;;;;;;1.67;1.57;;;26.90;77.30;;;;;;4961373;29;20464;-66
2022/07/13 02:35:49;;;;;;;2.73;1.97;;;26.70;77.60;;;;;;4956690;29;20452;-66
2022/07/13 02:38:20;;;;;;;4.43;1.97;;;26.50;78.20;;;;;;4942095;29;20483;-66
2022/07/13 02:40:52;;;;;;;1.73;1.63;;;26.30;79.00;;;;;;4941646;29;20463;-66
2022/07/13 02:43:23;;;;;;;1.50;1.40;;;26.00;79.90;;;;;;4942584;29;20459;-67
2022/07/13 02:45:54;;;;;;;1.43;1.27;;;25.80;81.00;;;;;;4970236;28;20462;-66
2022/07/13 02:48:24;;;;;;;1.87;1.53;;;25.70;81.70;;;;;;5082583;28;20826;-66
2022/07/13 02:50:55;;;;;;;2.13;1.63;;;25.70;82.40;;;;;;5081043;28;20448;-66
2022/07/13 02:53:26;;;;;;;1.70;1.60;;;25.70;82.00;;;;;;5082625;28;20448;-67
2022/07/13 02:55:59;;;;;;;2.07;1.70;;;25.60;81.30;;;;;;5097684;28;20456;-66
2022/07/13 02:58:29;;;;;;;1.67;1.13;;;25.40;81.60;;;;;;5082099;28;20460;-67
2022/07/13 03:01:00;;;;;;;1.70;1.60;;;25.30;82.00;;;;;;5082330;28;20463;-66
2022/07/13 03:03:31;;;;;;;1.70;1.50;;;25.10;82.90;;;;;;5084357;28;20444;-66
2022/07/13 03:06:02;;;;;;;2.13;1.60;;;25.00;83.70;;;;;;5084970;28;20458;-66
2022/07/13 03:08:33;;;;;;;1.93;1.73;;;24.90;83.50;;;;;;5105166;28;20514;-66
2022/07/13 03:11:06;;;;;;;1.20;1.10;;;24.80;84.20;;;;;;5105127;28;20575;-66
2022/07/13 03:13:36;;;;;;;1.40;1.30;;;24.70;84.50;;;;;;5106141;28;20498;-66
2022/07/13 03:16:08;;;;;;;1.77;1.67;;;24.70;85.00;;;;;;5100901;28;20454;-66
2022/07/13 03:18:38;;;;;;;2.30;1.70;;;24.60;84.80;;;;;;5086016;28;20451;-66
2022/07/13 03:21:09;;;;;;;1.93;1.60;;;24.50;85.00;;;;;;5096444;28;20446;-66
2022/07/13 03:23:40;;;;;;;1.57;1.47;;;24.40;85.90;;;;;;5105870;28;20450;-66
2022/07/13 03:26:13;;;;;;;1.93;1.67;;;24.30;86.00;;;;;;5069706;28;20458;-66
2022/07/13 03:28:43;;;;;;;1.70;1.60;;;24.20;86.20;;;;;;5093978;28;20530;-66
2022/07/13 03:31:14;;;;;;;1.47;1.23;;;24.20;85.30;;;;;;5096410;28;20469;-66
2022/07/13 03:33:45;;;;;;;1.60;1.30;;;24.20;85.40;;;;;;5101976;28;20453;-67
2022/07/13 03:36:16;;;;;;;2.80;1.50;;;24.00;85.20;;;;;;5069097;28;20473;-65
2022/07/13 03:38:47;;;;;;;1.67;1.57;;;23.90;85.30;;;;;;5085450;28;20474;-66
2022/07/13 03:41:19;;;;;;;1.30;1.20;;;23.80;85.90;;;;;;5090212;28;20515;-66
2022/07/13 03:43:55;;;;;;;1.97;1.70;;;23.70;87.00;;;;;;5085162;28;20771;-66
2022/07/13 03:46:26;;;;;;;1.20;1.10;;;23.60;86.90;;;;;;5085437;28;20531;-66
2022/07/13 03:48:59;;;;;;;1.40;1.30;;;23.50;86.80;;;;;;5077325;28;20453;-66
2022/07/13 03:51:30;;;;;;;1.53;1.43;;;23.40;87.50;;;;;;5088934;28;20787;-66
2022/07/13 03:54:01;;;;;;;3.20;1.50;;;23.30;87.80;;;;;;5105040;28;20458;-66
2022/07/13 03:56:34;;;;;;;1.27;1.17;;;23.20;88.60;;;;;;5104933;28;20518;-65
2022/07/13 03:59:04;;;;;;;1.73;1.63;;;23.10;88.20;;;;;;5105033;28;20459;-66
2022/07/13 04:01:35;;;;;;;1.37;1.27;;;23.00;88.10;;;;;;5098030;28;20519;-66
2022/07/13 04:04:06;;;;;;;1.43;1.30;;;22.80;88.80;;;;;;5097439;28;20450;-66
2022/07/13 04:06:37;;;;;;;1.53;1.43;;;22.70;89.70;;;;;;5098262;28;20551;-66
2022/07/13 04:09:08;;;;;;;1.80;1.57;;;22.60;89.90;;;;;;5085979;28;20456;-66
2022/07/13 04:11:43;;;;;;;1.30;1.20;;;22.50;90.10;;;;;;5094412;28;20455;-66
2022/07/13 04:14:17;;;;;;;2.70;1.27;;;22.40;90.40;;;;;;5104760;28;20539;-66
2022/07/13 04:16:48;;;;;;;2.03;1.60;;;22.40;90.50;;;;;;5084566;28;20443;-66
2022/07/13 04:19:19;;;;;;;1.60;1.50;;;22.40;90.50;;;;;;5093097;28;20463;-66
2022/07/13 04:21:52;;;;;;;1.40;1.30;;;22.20;90.20;;;;;;5095083;28;20457;-65
2022/07/13 04:24:24;;;;;;;1.27;1.17;;;22.10;90.40;;;;;;5104492;28;20492;-66
2022/07/13 04:26:56;;;;;;;2.77;1.10;;;22.00;90.30;;;;;;5103952;28;20457;-66
2022/07/13 04:29:27;;;;;;;3.40;1.40;;;21.90;90.40;;;;;;5102705;28;20448;-66
2022/07/13 04:32:00;;;;;;;1.27;1.10;;;21.80;90.80;;;;;;5101939;28;20758;-66
2022/07/13 04:34:34;;;;;;;1.60;1.20;;;21.70;90.60;;;;;;5086497;28;20463;-66
2022/07/13 04:37:05;;;;;;;1.53;0.87;;;21.60;90.80;;;;;;5083285;28;20820;-66
2022/07/13 04:39:35;;;;;;;1.37;1.27;;;21.50;91.00;;;;;;5084045;28;20474;-66
2022/07/13 04:42:11;;;;;;;1.93;1.27;;;21.40;91.10;;;;;;5093201;28;20630;-66
2022/07/13 04:44:45;;;;;;;1.73;1.43;;;21.20;91.40;;;;;;5097452;28;20446;-67
2022/07/13 04:47:16;;;;;;;1.37;1.20;;;21.10;91.80;;;;;;5104075;28;20453;-66
2022/07/13 04:49:49;;;;;;;1.40;1.30;;;21.00;92.00;;;;;;5103552;28;20455;-66
2022/07/13 04:52:21;;;;;;;1.27;1.07;;;20.90;92.00;;;;;;5087184;28;20444;-65
2022/07/13 04:54:52;;;;;;;1.30;1.20;;;20.80;92.40;;;;;;5083563;28;20493;-66
2022/07/13 04:57:26;;;;;;;1.00;1.00;;;20.70;92.80;;;;;;5091567;28;20452;-66
2022/07/13 04:59:57;;;;;;;1.50;1.23;;;20.70;92.90;;;;;;5083864;28;20449;-65
2022/07/13 05:02:31;;;;;;;1.70;1.23;;;20.60;92.70;;;;;;5096011;28;20442;-66
2022/07/13 05:05:14;;;;;;;1.40;1.30;;;20.50;93.20;;;;;;5101122;28;20455;-66
2022/07/13 05:07:47;;;;;;;3.13;1.60;;;20.50;93.30;;;;;;5103361;28;20468;-65
2022/07/13 05:10:18;;;;;;;1.27;1.00;;;20.40;93.20;;;;;;5102113;28;20524;-65
2022/07/13 05:12:51;;;;;;;1.43;1.33;;;20.30;93.50;;;;;;5085817;28;20451;-66
2022/07/13 05:15:45;;;;;;;1.90;1.13;;;20.30;93.70;;;;;;5098263;28;20502;-66
2022/07/13 05:18:18;;;;;;;1.60;1.10;;;20.20;93.90;;;;;;5087184;28;20450;-66
2022/07/13 05:20:49;;;;;;;1.53;1.10;;;20.10;93.60;;;;;;5083803;28;20502;-66
2022/07/13 05:23:22;;;;;;;1.63;1.03;;;20.10;93.60;;;;;;5102943;28;20453;-66
2022/07/13 05:25:53;;;;;;;1.73;1.13;;;20.00;93.60;;;;;;5102638;28;20456;-65
2022/07/13 05:28:27;;;;;;;1.43;0.90;;;19.90;93.50;;;;;;5071276;28;20437;-66
2022/07/13 05:31:00;;;;;;;1.20;1.10;;;19.80;93.60;;;;;;5087537;28;20464;-65
2022/07/13 05:33:31;;;;;;;1.10;0.90;;;19.70;93.70;;;;;;5083050;28;20499;-65
2022/07/13 05:36:09;;;;;;;2.27;1.23;;;19.60;93.50;;;;;;5098496;28;20461;-66
2022/07/13 05:38:40;;;;;;;3.50;0.93;;;19.60;93.90;;;;;;5082954;28;20454;-65
2022/07/13 05:41:11;;;;;;;1.10;1.00;;;19.50;93.90;;;;;;5090928;28;20429;-66
2022/07/13 05:43:44;;;;;;;1.20;1.10;;;19.50;94.00;;;;;;5076319;28;20434;-65
2022/07/13 05:46:14;;;;;;;1.70;1.17;;;19.40;93.90;;;;;;5099711;28;20473;-66
2022/07/13 05:48:45;;;;;;;1.40;1.30;;;19.40;94.80;;;;;;5094669;28;20437;-66
2022/07/13 05:51:22;;;;;;;1.40;1.30;;;19.40;94.50;;;;;;5091290;28;20442;-66
2022/07/13 05:54:03;;;;;;;0.90;0.90;;;19.40;94.60;;;;;;5083197;28;20410;-65
2022/07/13 05:56:54;;;;;;;1.23;1.07;;;19.30;94.70;;;;;;5082350;28;20799;-65
2022/07/13 05:59:33;;;;;;;1.07;0.90;;;19.20;94.90;;;;;;5082401;28;20462;-65
2022/07/13 06:02:03;;;;;;;3.60;1.40;;;19.10;95.40;;;;;;5083225;28;20556;-66
2022/07/13 06:04:34;;;;;;;1.30;1.03;;;19.00;95.80;;;;;;5090618;28;20440;-65
2022/07/13 06:07:05;;;;;;;2.47;1.40;;;19.10;95.90;;;;;;5095377;28;20461;-65
2022/07/13 06:09:36;;;;;;;2.13;1.50;;;19.00;96.20;;;;;;5091185;28;20416;-65
2022/07/13 06:12:07;;;;;;;1.40;1.20;;;19.00;96.50;;;;;;5094996;28;20440;-65
2022/07/13 06:14:40;;;;;;;1.00;0.90;;;18.90;96.70;;;;;;5086378;28;20453;-65
2022/07/13 06:17:11;;;;;;;1.30;1.20;;;18.80;96.80;;;;;;5101383;28;20482;-65
2022/07/13 06:19:42;;;;;;;1.37;1.27;;;18.80;97.00;;;;;;5102105;28;20429;-65
2022/07/13 06:22:13;;;;;;;1.47;1.00;;;18.70;97.10;;;;;;5093109;28;20451;-65
2022/07/13 06:24:44;;;;;;;2.00;1.00;;;18.70;97.50;;;;;;5082517;28;20443;-64
2022/07/13 06:27:14;;;;;;;1.87;1.40;;;18.70;97.20;;;;;;5081856;28;20448;-64
2022/07/13 06:29:47;;;;;;;2.40;1.17;;;18.60;97.50;;;;;;5083179;28;20436;-65
2022/07/13 06:32:18;;;;;;;1.57;1.10;;;18.50;97.60;;;;;;5095607;28;20431;-65
2022/07/13 06:34:48;;;;;;;1.40;1.17;;;18.50;97.90;;;;;;5097509;28;20458;-65
2022/07/13 06:37:19;;;;;;;1.10;1.00;;;18.40;98.10;;;;;;5081013;28;20957;-65
2022/07/13 06:40:11;;;;;;;0.97;0.97;;;18.40;98.60;;;;;;5075006;28;20425;-65
2022/07/13 06:42:45;;;;;;;1.30;1.00;;;18.30;99.30;;;;;;5092428;28;20919;-64
2022/07/13 06:45:17;;;;;;;2.47;1.27;;;18.30;99.10;;;;;;5086011;28;20432;-65
2022/07/13 06:47:48;;;;;;;2.00;1.13;;;18.20;99.20;;;;;;5086103;28;20789;-65
2022/07/13 06:50:19;;;;;;;2.17;1.40;;;18.20;99.20;;;;;;5085280;28;20459;-64
2022/07/13 06:52:50;;;;;;;1.30;1.20;;;18.20;99.40;;;;;;5089557;28;20450;-64
2022/07/13 06:55:21;;;;;;;1.73;1.63;;;18.00;99.70;;;;;;5105619;28;20514;-65
2022/07/13 06:57:52;;;;;;;1.20;1.10;;;17.90;99.90;;;;;;5105833;28;20453;-65
2022/07/13 07:00:25;;;;;;;2.10;1.40;;;17.90;99.90;;;;;;5105390;28;20447;-65
2022/07/13 07:02:58;;;;;;;1.50;1.17;;;17.90;99.90;;;;;;5100509;28;20496;-65
2022/07/13 07:05:31;;;;;;;1.43;1.33;;;17.80;99.90;;;;;;5089367;28;20434;-64
2022/07/13 07:08:03;;;;;;;1.30;1.20;;;17.80;99.90;;;;;;5085545;28;20453;-64
2022/07/13 07:10:34;;;;;;;1.10;1.00;;;17.70;99.90;;;;;;5085527;28;20440;-65
2022/07/13 07:13:09;;;;;;;2.10;1.07;;;17.70;99.90;;;;;;5098991;28;20503;-65
2022/07/13 07:15:41;;;;;;;2.00;0.90;;;17.70;99.90;;;;;;5105514;28;20561;-65
2022/07/13 07:18:12;;;;;;;1.73;1.30;;;17.70;99.90;;;;;;5105549;28;20983;-65
2022/07/13 07:20:43;;;;;;;1.77;1.63;;;17.70;99.90;;;;;;5104390;28;20514;-64
2022/07/13 07:23:14;;;;;;;1.30;1.20;;;17.70;99.90;;;;;;5090764;28;20426;-65
2022/07/13 07:25:45;;;;;;;1.43;1.33;;;17.60;99.90;;;;;;5085198;28;20461;-65
2022/07/13 07:28:16;;;;;;;1.37;1.23;;;17.50;99.90;;;;;;5071109;28;20409;-65
2022/07/13 07:30:49;;;;;;;1.27;1.17;;;17.50;99.90;;;;;;5096621;28;20473;-65
2022/07/13 07:33:20;;;;;;;1.73;1.10;;;17.50;99.90;;;;;;5096819;28;20456;-64
2022/07/13 07:35:50;;;;;;;1.40;1.20;;;17.40;99.90;;;;;;5101335;28;20933;-65
2022/07/13 07:38:21;;;;;;;1.30;1.20;;;17.40;99.90;;;;;;5068929;28;20539;-65
2022/07/13 07:40:52;;;;;;;1.00;1.00;;;17.30;99.90;;;;;;5085118;28;20436;-64
2022/07/13 07:43:23;;;;;;;1.50;1.40;;;17.20;99.90;;;;;;5098561;28;20459;-64
2022/07/13 07:45:55;;;;;;;2.20;1.23;;;17.30;99.90;;;;;;5086861;28;20426;-65
2022/07/13 07:48:26;;;;;;;1.33;1.23;;;17.30;99.90;;;;;;5084488;28;21042;-65
2022/07/13 07:50:57;;;;;;;1.37;1.27;;;17.20;99.90;;;;;;5083866;28;20470;-65
2022/07/13 07:53:28;;;;;;;1.37;1.20;;;17.20;99.90;;;;;;5097936;28;20459;-65
2022/07/13 07:56:02;;;;;;;1.53;1.43;;;17.20;99.90;;;;;;5104710;28;20434;-64
2022/07/13 07:58:32;;;;;;;1.47;1.30;;;17.10;99.90;;;;;;5101121;28;20562;-65
2022/07/13 08:01:05;;;;;;;1.60;1.40;;;17.00;99.90;;;;;;5084487;28;20523;-65
2022/07/13 08:03:36;;;;;;;1.30;1.20;;;17.00;99.90;;;;;;5094772;28;20507;-64
2022/07/13 08:06:08;;;;;;;1.97;1.50;;;16.90;99.90;;;;;;5084922;28;20417;-65
2022/07/13 08:08:38;;;;;;;1.30;1.20;;;16.90;99.90;;;;;;5090677;28;20537;-65
2022/07/13 08:11:16;;;;;;;1.30;1.20;;;16.90;99.90;;;;;;5105088;28;20952;-65
2022/07/13 08:13:47;;;;;;;1.67;1.10;;;16.80;99.90;;;;;;5094995;28;20501;-64
2022/07/13 08:16:20;;;;;;;2.20;1.40;;;16.80;99.90;;;;;;5094321;28;20918;-65
2022/07/13 08:18:51;;;;;;;2.07;1.57;;;16.90;99.90;;;;;;5104331;28;20454;-65
2022/07/13 08:21:42;;;;;;;0.90;0.90;;;16.80;99.90;;;;;;5103648;28;20413;-64
2022/07/13 08:24:13;;;;;;;2.23;1.60;;;16.70;99.90;;;;;;5085092;28;20539;-65
2022/07/13 08:26:44;;;;;;;1.53;1.20;;;16.70;99.90;;;;;;5094617;28;20446;-65
2022/07/13 08:29:15;;;;;;;2.07;1.30;;;16.50;99.90;;;;;;5096070;28;20414;-65
2022/07/13 08:31:48;;;;;;;2.00;1.27;;;16.60;99.90;;;;;;5085082;28;20550;-65
2022/07/13 08:39:58;;;;;;;1.40;1.30;;;16.50;99.90;;;;;;5078151;28;20485;-65
2022/07/13 08:42:29;;;;;;;2.27;1.87;;;16.50;99.90;;;;;;5087599;28;20469;-64
2022/07/13 08:45:00;;;;;;;2.77;1.33;;;16.50;99.90;;;;;;5098167;28;20463;-65
2022/07/13 08:47:33;;;;;;;2.37;1.17;;;16.50;99.90;;;;;;5092948;28;20478;-65
2022/07/13 08:50:07;;;;;;;1.50;1.30;;;16.40;99.90;;;;;;5103819;28;20442;-64
2022/07/13 08:52:40;;;;;;;1.40;1.30;;;16.30;99.90;;;;;;5098270;28;20537;-64
2022/07/13 08:55:10;;;;;;;1.50;1.40;;;16.30;99.90;;;;;;5083344;28;20498;-64
2022/07/13 08:57:42;;;;;;;1.57;1.47;;;16.30;99.90;;;;;;5083731;28;20497;-64
2022/07/13 09:00:14;;;;;;;2.00;1.60;;;16.30;99.90;;;;;;5083945;28;20507;-65
2022/07/13 09:02:49;;;;;;;1.53;1.43;;;16.30;99.90;;;;;;5089545;28;20414;-65
2022/07/13 09:05:23;;;;;;;1.97;1.30;;;16.20;99.90;;;;;;5100104;28;20442;-64
2022/07/13 09:08:05;;;;;;;1.40;1.13;;;16.10;99.90;;;;;;5103134;28;20470;-64
2022/07/13 09:10:53;;;;;;;1.10;1.00;;;16.10;99.90;;;;;;5098296;28;20455;-65
2022/07/13 09:13:38;;;;;;;1.77;1.30;;;16.00;99.90;;;;;;5092199;28;20448;-65
2022/07/13 09:16:16;;;;;;;1.73;1.30;;;16.10;99.90;;;;;;5082932;28;20539;-64
2022/07/13 09:18:50;;;;;;;1.30;1.20;;;16.10;99.90;;;;;;5086304;28;20527;-65
2022/07/13 09:21:26;;;;;;;1.20;1.17;;;16.10;99.90;;;;;;5087306;28;20439;-65
2022/07/13 09:23:58;;;;;;;1.37;1.20;;;16.00;99.90;;;;;;5083707;28;20439;-64
2022/07/13 09:26:41;;;;;;;1.30;1.20;;;16.10;99.90;;;;;;5088397;28;20503;-64
2022/07/13 09:29:12;;;;;;;1.50;1.40;;;16.00;99.90;;;;;;5103117;28;20458;-64
2022/07/13 09:31:53;;;;;;;0.93;0.93;;;16.00;99.90;;;;;;5085849;28;20542;-64
2022/07/13 09:34:47;;;;;;;2.03;1.20;;;16.00;99.90;;;;;;5068389;28;20422;-64
2022/07/13 09:37:19;;;;;;;3.60;2.03;;;16.00;99.90;;;;;;5081907;28;20475;-64
2022/07/13 09:40:08;;;;;;;1.33;0.97;;;15.80;99.90;;;;;;5082858;28;20455;-64
2022/07/13 09:42:39;;;;;;;1.43;1.30;;;15.80;99.90;;;;;;5082902;28;20448;-65
2022/07/13 09:48:15;;;;;;;1.60;1.20;;;15.90;99.90;;;;;;5042765;28;20454;-65
2022/07/13 09:50:55;;;;;;;1.40;1.00;;;15.80;99.90;;;;;;5047253;28;20454;-64
2022/07/13 09:53:27;;;;;;;2.10;1.40;;;15.70;99.90;;;;;;5059772;28;20458;-65
2022/07/13 09:55:59;;;;;;;5.80;2.20;;;15.60;99.90;;;;;;5058956;28;20462;-64
2022/07/13 09:58:32;;;;;;;1.60;1.50;;;15.70;99.90;;;;;;5059822;28;20484;-65
2022/07/13 10:01:03;;;;;;;1.53;1.40;;;15.70;99.90;;;;;;5049216;28;20945;-65
2022/07/13 10:03:34;;;;;;;2.40;1.20;;;15.60;99.90;;;;;;5040951;28;20445;-65
2022/07/13 10:06:09;;;;;;;1.47;1.37;;;15.60;99.90;;;;;;5051165;28;20456;-65
2022/07/13 10:08:41;;;;;;;1.87;1.50;;;15.60;99.90;;;;;;5053562;28;20449;-65
2022/07/13 10:11:12;;;;;;;2.63;2.40;;;15.60;99.90;;;;;;5050690;28;20438;-65
2022/07/13 10:13:44;;;;;;;1.30;1.20;;;15.50;99.90;;;;;;5059777;28;20456;-65
2022/07/13 10:16:15;;;;;;;1.50;1.37;;;15.60;99.90;;;;;;5050495;28;20990;-64
2022/07/13 10:18:46;;;;;;;1.40;1.30;;;15.60;99.90;;;;;;5046393;28;20602;-65
2022/07/13 10:21:24;;;;;;;2.47;1.27;;;15.60;99.90;;;;;;5046321;28;20527;-64
2022/07/13 10:23:55;;;;;;;1.23;1.13;;;15.50;99.90;;;;;;5096247;28;20447;-65
2022/07/13 10:26:28;;;;;;;2.27;1.50;;;15.60;99.90;;;;;;5101368;28;20450;-64
2022/07/13 10:29:09;;;;;;;1.33;1.23;;;15.60;99.90;;;;;;5102295;28;20461;-64
2022/07/13 10:31:41;;;;;;;1.50;1.20;;;15.50;99.90;;;;;;5087160;28;20483;-65
2022/07/13 10:34:13;;;;;;;1.40;1.30;;;15.50;99.90;;;;;;5097913;28;20443;-64
2022/07/13 10:36:56;;;;;;;1.30;1.20;;;15.50;99.90;;;;;;5064888;28;20454;-65
2022/07/13 10:39:29;;;;;;;1.50;1.30;;;15.60;99.90;;;;;;5071302;28;20491;-65
2022/07/13 10:42:01;;;;;;;1.60;1.10;;;15.50;99.90;;;;;;5083123;28;20462;-65
2022/07/13 10:44:37;;;;;;;2.17;1.90;;;15.50;99.90;;;;;;5096755;28;20450;-65
2022/07/13 10:47:08;;;;;;;2.37;1.40;;;15.50;99.90;;;;;;5087452;28;20468;-65
2022/07/13 10:49:45;;;;;;;2.00;1.80;;;15.50;99.90;;;;;;5085217;28;20486;-66
2022/07/13 10:52:54;;;;;;;1.40;1.20;;;15.40;99.90;;;;;;5082012;28;20783;-64
2022/07/13 10:55:51;;;;;;;1.50;1.33;;;15.40;99.90;;;;;;5071830;28;20459;-65
2022/07/13 10:58:45;;;;;;;3.30;1.47;;;15.40;99.90;;;;;;5082434;28;20499;-65
2022/07/13 11:01:39;;;;;;;1.40;1.30;;;15.40;99.90;;;;;;5076909;28;20472;-65
2022/07/13 11:04:12;;;;;;;1.87;1.67;;;15.30;99.90;;;;;;5102390;28;20545;-65
2022/07/13 11:06:43;;;;;;;1.47;1.37;;;15.30;99.90;;;;;;5100451;28;20488;-65
2022/07/13 11:09:20;;;;;;;1.30;1.20;;;15.30;99.90;;;;;;5084519;28;20455;-65
2022/07/13 11:11:56;;;;;;;2.07;1.40;;;15.30;99.90;;;;;;5083408;28;20451;-65
2022/07/13 11:14:49;;;;;;;1.73;1.20;;;15.40;99.90;;;;;;5081960;28;20478;-64
2022/07/13 11:17:23;;;;;;;2.10;1.10;;;15.40;99.90;;;;;;5081376;28;20471;-64
2022/07/13 11:20:01;;;;;;;2.10;1.63;;;15.30;99.90;;;;;;5082568;28;20498;-66
2022/07/13 11:25:40;;;;;;;2.20;1.13;;;15.30;99.90;;;;;;5081009;28;20443;-65
2022/07/13 11:28:29;;;;;;;1.87;1.63;;;15.40;99.90;;;;;;5093594;28;20476;-64
2022/07/13 11:31:03;;;;;;;2.57;1.57;;;15.40;99.90;;;;;;5088588;28;20465;-64
2022/07/13 11:33:34;;;;;;;2.00;1.23;;;15.30;99.90;;;;;;5096495;28;20478;-65
2022/07/13 11:36:07;;;;;;;2.87;1.60;;;15.30;99.90;;;;;;5083926;28;20447;-65
2022/07/13 11:38:51;;;;;;;1.90;1.33;;;15.20;99.90;;;;;;5095762;28;20520;-65
2022/07/13 11:41:23;;;;;;;4.03;1.60;;;15.30;99.90;;;;;;5084454;28;20932;-65
2022/07/13 11:43:56;;;;;;;2.40;1.47;;;15.30;99.90;;;;;;5093291;28;20460;-65
2022/07/13 11:46:28;;;;;;;1.53;1.43;;;15.20;99.90;;;;;;5104768;28;20447;-65
2022/07/13 11:49:03;;;;;;;1.30;1.20;;;15.30;99.90;;;;;;5094923;28;20455;-65
2022/07/13 11:51:34;;;;;;;1.30;1.20;;;15.20;99.90;;;;;;5088373;28;20446;-65
2022/07/13 11:54:12;;;;;;;2.80;1.50;;;15.20;99.90;;;;;;5104789;28;20443;-64
2022/07/13 11:56:50;;;;;;;2.70;1.73;;;15.20;99.90;;;;;;5104368;28;20457;-65
2022/07/13 12:02:18;;;;;;;3.90;1.63;;;15.10;99.90;;;;;;5169796;27;21117;-63
2022/07/13 12:04:50;;;;;;;1.67;1.10;;;15.10;99.90;;;;;;5181974;27;20447;-63
2022/07/13 12:07:23;;;;;;;3.30;1.97;;;15.00;99.90;;;;;;5172334;27;20448;-63
2022/07/13 12:09:56;;;;;;;1.80;1.50;;;15.00;99.90;;;;;;5160777;27;20791;-63
2022/07/13 12:12:29;;;;;;;2.60;1.67;;;15.00;99.90;;;;;;5145785;27;20470;-65
2022/07/13 12:15:01;;;;;;;1.33;1.23;;;15.00;99.90;;;;;;5161387;27;20982;-65
2022/07/13 12:17:43;;;;;;;2.23;2.03;;;15.00;99.90;;;;;;5161650;27;20444;-63
2022/07/13 12:20:16;;;;;;;2.17;1.97;;;14.90;99.90;;;;;;5177483;27;20926;-65
2022/07/13 12:22:52;;;;;;;2.20;1.20;;;14.90;99.90;;;;;;5182178;27;20749;-64
2022/07/13 12:25:31;;;;;;;1.90;1.20;;;14.90;99.90;;;;;;5169988;27;20451;-64
2022/07/13 12:28:05;;;;;;;1.87;1.37;;;14.90;99.90;;;;;;5161388;27;20452;-62
2022/07/13 12:30:38;;;;;;;2.30;1.93;;;14.90;99.90;;;;;;5175500;27;20561;-63
2022/07/13 12:33:11;;;;;;;2.03;1.50;;;14.90;99.90;;;;;;5160972;27;20436;-63
2022/07/13 12:35:43;;;;;;;1.90;1.20;;;14.90;99.90;;;;;;5161487;27;20471;-63
2022/07/13 12:38:14;;;;;;;1.40;1.30;;;14.90;99.90;;;;;;5161924;27;20452;-63
2022/07/13 12:40:48;;;;;;;2.70;1.70;;;14.90;99.90;;;;;;5181350;27;20499;-63
2022/07/13 12:43:21;;;;;;;2.07;1.20;;;14.80;99.90;;;;;;5181652;27;20446;-63
2022/07/13 12:45:53;;;;;;;2.30;1.60;;;14.80;99.90;;;;;;5181404;27;20762;-63
2022/07/13 12:48:27;;;;;;;2.33;1.80;;;14.80;99.90;;;;;;5179889;27;20454;-63
2022/07/13 12:51:01;;;;;;;1.53;1.43;;;14.80;99.90;;;;;;5164392;27;20464;-63
2022/07/13 12:53:48;;;;;;;1.03;0.93;;;14.80;99.90;;;;;;5181540;27;20443;-64
2022/07/13 12:56:20;;;;;;;2.17;1.90;;;14.80;99.90;;;;;;5180878;27;20510;-63
2022/07/13 12:58:52;;;;;;;5.07;1.63;;;14.80;99.90;;;;;;5178935;27;20530;-63
2022/07/13 13:01:30;;;;;;;1.90;1.80;;;14.90;99.90;;;;;;5163971;27;20488;-63
2022/07/13 13:04:04;;;;;;;1.30;1.20;;;14.90;99.90;;;;;;5163636;27;20833;-63
2022/07/13 13:06:35;;;;;;;1.53;1.43;;;15.00;99.90;;;;;;5159660;27;20451;-63
2022/07/13 13:09:07;;;;;;;2.73;1.23;;;15.10;99.90;;;;;;5163708;27;20446;-65
2022/07/13 13:11:39;;;;;;;2.50;1.27;;;15.20;99.90;;;;;;5178172;27;20454;-64
2022/07/13 13:14:10;;;;;;;1.57;1.23;;;15.20;99.90;;;;;;5167118;27;20444;-64
2022/07/13 13:16:42;;;;;;;2.07;1.27;;;15.20;99.90;;;;;;5166246;27;20542;-64
2022/07/13 13:19:15;;;;;;;1.73;1.63;;;15.20;99.90;;;;;;5161999;27;20452;-64
2022/07/13 13:21:45;;;;;;;2.47;1.33;;;15.30;99.90;;;;;;5146554;27;20479;-64
2022/07/13 13:24:16;;;;;;;1.60;1.50;;;15.40;99.90;;;;;;5146673;27;20540;-64
2022/07/13 13:26:47;;;;;;;1.47;1.37;;;15.40;99.90;;;;;;5147011;27;20546;-64
2022/07/13 13:32:26;;;;;;;1.47;1.27;;;15.40;99.90;;;;;;5140733;27;20532;-64
2022/07/13 13:34:58;;;;;;;3.37;1.80;;;15.40;99.90;;;;;;5147687;27;20448;-64
2022/07/13 13:37:29;;;;;;;2.83;1.37;;;15.40;99.90;;;;;;5130445;27;20451;-64
2022/07/13 13:40:00;;;;;;;1.20;1.10;;;15.40;99.90;;;;;;5155365;27;20458;-65
2022/07/13 13:42:31;;;;;;;4.27;1.30;;;15.40;99.90;;;;;;5166751;27;20518;-64
2022/07/13 13:45:22;;;;;;;1.10;1.00;;;15.40;99.90;;;;;;5166613;27;20436;-64